createdAt,value
2022-09-03T00:00:37.940Z,12.00
2022-09-03T00:03:19.419Z,11.90
2022-09-03T00:05:57.193Z,12.00
2022-09-03T00:08:44.420Z,11.90
2022-09-03T00:11:22.063Z,11.90
2022-09-03T00:14:03.143Z,11.60
2022-09-03T00:16:46.074Z,11.60
2022-09-03T00:19:22.655Z,11.60
2022-09-03T00:21:58.267Z,11.60
2022-09-03T00:24:36.182Z,11.40
2022-09-03T00:27:14.066Z,11.50
2022-09-03T00:29:54.108Z,11.40
2022-09-03T00:32:34.883Z,11.40
2022-09-03T00:35:11.968Z,11.50
2022-09-03T00:37:41.979Z,11.50
2022-09-03T00:40:32.732Z,11.50
2022-09-03T00:43:16.702Z,11.40
2022-09-03T00:46:07.045Z,11.30
2022-09-03T00:48:55.925Z,11.30
2022-09-03T00:51:37.272Z,11.20
2022-09-03T00:54:21.481Z,11.10
2022-09-03T00:57:07.242Z,11.20
2022-09-03T00:59:48.549Z,11.00
2022-09-03T01:02:33.962Z,11.10
2022-09-03T01:05:20.993Z,11.10
2022-09-03T01:08:08.136Z,11.10
2022-09-03T01:10:57.176Z,11.10
2022-09-03T01:13:38.525Z,11.10
2022-09-03T01:16:22.018Z,11.10
2022-09-03T01:19:08.922Z,11.00
2022-09-03T01:22:10.252Z,11.00
2022-09-03T01:25:17.524Z,10.80
2022-09-03T01:28:13.551Z,10.90
2022-09-03T01:30:52.016Z,10.90
2022-09-03T01:33:32.561Z,10.80
2022-09-03T01:36:17.063Z,10.80
2022-09-03T01:38:56.527Z,10.80
2022-09-03T01:42:05.049Z,10.80
2022-09-03T01:44:52.914Z,10.90
2022-09-03T01:47:37.967Z,10.90
2022-09-03T01:50:17.623Z,10.80
2022-09-03T01:53:00.213Z,10.90
2022-09-03T01:55:40.869Z,10.80
2022-09-03T01:58:17.124Z,10.80
2022-09-03T02:00:59.323Z,10.80
2022-09-03T02:03:40.933Z,10.70
2022-09-03T02:06:13.860Z,10.70
2022-09-03T02:08:44.667Z,10.80
2022-09-03T02:11:15.007Z,10.80
2022-09-03T02:13:49.521Z,10.70
2022-09-03T02:16:29.258Z,10.70
2022-09-03T02:19:04.073Z,10.60
2022-09-03T02:21:39.479Z,10.60
2022-09-03T02:24:12.284Z,10.60
2022-09-03T02:26:42.596Z,10.50
2022-09-03T02:29:14.241Z,10.50
2022-09-03T02:31:46.084Z,10.50
2022-09-03T02:34:16.396Z,10.50
2022-09-03T02:36:48.944Z,10.40
2022-09-03T02:39:20.242Z,10.40
2022-09-03T02:41:59.217Z,10.40
2022-09-03T02:44:34.065Z,10.40
2022-09-03T02:47:10.151Z,10.40
2022-09-03T02:49:40.333Z,10.50
2022-09-03T02:52:12.521Z,10.70
2022-09-03T02:54:45.112Z,10.80
2022-09-03T02:57:23.083Z,10.80
2022-09-03T02:59:58.483Z,10.80
2022-09-03T03:02:30.108Z,10.80
2022-09-03T03:05:00.485Z,10.80
2022-09-03T03:07:33.586Z,10.90
2022-09-03T03:10:03.812Z,10.90
2022-09-03T03:12:34.366Z,11.00
2022-09-03T03:15:04.630Z,11.00
2022-09-03T03:17:36.176Z,11.00
2022-09-03T03:20:08.373Z,10.90
2022-09-03T03:22:38.641Z,10.90
2022-09-03T03:25:10.213Z,10.90
2022-09-03T03:27:42.213Z,10.70
2022-09-03T03:30:14.205Z,10.60
2022-09-03T03:32:45.404Z,10.50
2022-09-03T03:35:15.593Z,10.40
2022-09-03T03:37:45.661Z,10.50
2022-09-03T03:40:16.721Z,10.30
2022-09-03T03:42:46.928Z,10.30
2022-09-03T03:45:17.416Z,10.20
2022-09-03T03:47:49.274Z,10.20
2022-09-03T03:50:19.658Z,10.10
2022-09-03T03:52:49.887Z,10.20
2022-09-03T03:55:20.331Z,10.20
2022-09-03T03:57:50.375Z,10.20
2022-09-03T04:00:20.805Z,10.10
2022-09-03T04:02:52.787Z,9.90
2022-09-03T04:05:23.147Z,9.90
2022-09-03T04:07:54.111Z,9.90
2022-09-03T04:10:24.495Z,9.90
2022-09-03T04:12:57.700Z,10.00
2022-09-03T04:15:27.893Z,9.90
2022-09-03T04:18:00.611Z,9.90
2022-09-03T04:20:30.942Z,10.10
2022-09-03T04:23:04.098Z,10.10
2022-09-03T04:25:34.585Z,10.20
2022-09-03T04:28:05.114Z,10.30
2022-09-03T04:30:35.459Z,10.20
2022-09-03T04:33:07.445Z,10.10
2022-09-03T04:35:46.644Z,10.30
2022-09-03T04:38:17.234Z,10.40
2022-09-03T04:40:52.662Z,10.40
2022-09-03T04:43:22.827Z,10.50
2022-09-03T04:45:53.082Z,10.20
2022-09-03T04:48:24.854Z,10.20
2022-09-03T04:50:55.964Z,10.10
2022-09-03T04:53:26.222Z,10.00
2022-09-03T04:55:56.075Z,10.00
2022-09-03T04:58:26.238Z,10.00
2022-09-03T05:00:56.714Z,10.10
2022-09-03T05:03:29.171Z,10.00
2022-09-03T05:05:59.703Z,10.00
2022-09-03T05:08:29.907Z,10.00
2022-09-03T05:11:02.654Z,10.00
2022-09-03T05:13:33.562Z,10.10
2022-09-03T05:16:06.406Z,10.10
2022-09-03T05:18:39.923Z,10.20
2022-09-03T05:21:12.328Z,10.20
2022-09-03T05:23:44.391Z,10.10
2022-09-03T05:26:17.612Z,10.20
2022-09-03T05:28:49.216Z,10.30
2022-09-03T05:31:21.518Z,10.20
2022-09-03T05:33:57.793Z,10.20
2022-09-03T05:36:31.020Z,10.30
2022-09-03T05:39:02.515Z,10.30
2022-09-03T05:41:34.072Z,10.40
2022-09-03T05:44:06.091Z,10.50
2022-09-03T05:46:37.758Z,10.60
2022-09-03T05:49:11.614Z,10.60
2022-09-03T05:51:42.586Z,10.60
2022-09-03T05:54:13.521Z,10.70
2022-09-03T05:56:44.037Z,10.70
2022-09-03T05:59:14.705Z,10.80
2022-09-03T06:01:50.344Z,11.00
2022-09-03T06:04:23.312Z,11.20
2022-09-03T06:06:53.815Z,11.30
2022-09-03T06:09:25.264Z,11.50
2022-09-03T06:11:57.238Z,11.60
2022-09-03T06:14:27.321Z,11.70
2022-09-03T06:16:57.554Z,11.70
2022-09-03T06:19:28.782Z,11.80
2022-09-03T06:21:58.984Z,11.90
2022-09-03T06:24:29.733Z,12.00
2022-09-03T06:27:00.304Z,12.00
2022-09-03T06:29:30.834Z,12.00
2022-09-03T06:32:02.238Z,12.00
2022-09-03T06:34:33.744Z,12.10
2022-09-03T06:37:03.840Z,12.20
2022-09-03T06:39:34.185Z,12.10
2022-09-03T06:42:04.936Z,12.00
2022-09-03T06:44:39.521Z,12.00
2022-09-03T06:47:09.634Z,12.00
2022-09-03T06:49:41.008Z,12.10
2022-09-03T06:52:11.066Z,12.20
2022-09-03T06:54:41.091Z,12.30
2022-09-03T06:57:11.251Z,12.40
2022-09-03T06:59:41.420Z,12.50
2022-09-03T07:02:11.648Z,12.60
2022-09-03T07:04:43.529Z,12.60
2022-09-03T07:07:16.279Z,12.70
2022-09-03T07:09:48.324Z,12.70
2022-09-03T07:12:19.304Z,12.80
2022-09-03T07:14:51.106Z,12.80
2022-09-03T07:17:21.687Z,12.90
2022-09-03T07:19:53.229Z,12.90
2022-09-03T07:22:23.276Z,13.00
2022-09-03T07:25:02.393Z,13.10
2022-09-03T07:27:32.321Z,13.30
2022-09-03T07:30:03.434Z,13.40
2022-09-03T07:32:34.314Z,13.60
2022-09-03T07:35:06.077Z,13.60
2022-09-03T07:37:37.509Z,13.70
2022-09-03T07:40:08.790Z,13.80
2022-09-03T07:42:40.140Z,14.00
2022-09-03T07:45:12.804Z,14.10
2022-09-03T07:47:49.913Z,14.30
2022-09-03T07:50:21.324Z,14.40
2022-09-03T07:52:51.557Z,14.50
2022-09-03T07:55:21.457Z,14.60
2022-09-03T07:57:51.366Z,14.70
2022-09-03T08:00:21.403Z,14.80
2022-09-03T08:02:52.543Z,15.00
2022-09-03T08:05:27.185Z,15.10
2022-09-03T08:07:57.241Z,15.20
2022-09-03T08:10:30.535Z,15.30
2022-09-03T08:13:01.122Z,15.50
2022-09-03T08:15:31.697Z,15.70
2022-09-03T08:18:03.688Z,15.80
2022-09-03T08:20:38.749Z,15.90
2022-09-03T08:23:09.159Z,16.10
2022-09-03T08:25:39.652Z,16.30
2022-09-03T08:28:10.066Z,16.50
2022-09-03T08:30:41.480Z,16.60
2022-09-03T08:33:11.835Z,16.80
2022-09-03T08:35:43.491Z,17.00
2022-09-03T08:38:15.508Z,17.10
2022-09-03T08:40:46.125Z,17.30
2022-09-03T08:43:20.593Z,17.50
2022-09-03T08:45:51.138Z,17.70
2022-09-03T08:48:28.308Z,17.80
2022-09-03T08:51:07.518Z,17.80
2022-09-03T08:53:50.405Z,17.90
2022-09-03T08:56:29.186Z,18.10
2022-09-03T08:59:01.879Z,18.30
2022-09-03T09:01:47.999Z,18.50
2022-09-03T09:04:35.021Z,18.70
2022-09-03T09:07:18.236Z,18.90
2022-09-03T09:10:01.297Z,19.10
2022-09-03T09:12:46.962Z,19.30
2022-09-03T09:15:31.529Z,19.40
2022-09-03T09:18:17.263Z,19.60
2022-09-03T09:20:54.650Z,19.70
2022-09-03T09:23:35.765Z,19.70
2022-09-03T09:26:14.197Z,19.80
2022-09-03T09:28:47.803Z,19.80
2022-09-03T09:31:21.920Z,19.40
2022-09-03T09:33:52.540Z,19.30
2022-09-03T09:36:23.626Z,19.40
2022-09-03T09:38:56.359Z,19.50
2022-09-03T09:41:29.875Z,19.60
2022-09-03T09:44:06.239Z,19.50
2022-09-03T09:46:42.183Z,19.60
2022-09-03T09:49:33.198Z,19.70
2022-09-03T09:52:12.946Z,19.90
2022-09-03T09:54:46.828Z,20.00
2022-09-03T09:57:22.908Z,20.10
2022-09-03T10:00:04.530Z,20.20
2022-09-03T10:02:48.842Z,20.40
2022-09-03T10:05:25.137Z,20.50
2022-09-03T10:08:00.833Z,20.60
2022-09-03T10:10:37.968Z,20.90
2022-09-03T10:13:15.304Z,21.00
2022-09-03T10:15:56.772Z,21.20
2022-09-03T10:18:38.113Z,21.30
2022-09-03T10:21:19.177Z,21.60
2022-09-03T10:24:03.711Z,21.80
2022-09-03T10:26:40.051Z,22.10
2022-09-03T10:29:11.436Z,22.20
2022-09-03T10:32:00.772Z,22.30
2022-09-03T10:34:40.793Z,22.30
2022-09-03T10:37:25.952Z,22.40
2022-09-03T10:40:17.843Z,22.40
2022-09-03T10:43:17.577Z,22.70
2022-09-03T10:46:03.173Z,22.70
2022-09-03T10:49:13.440Z,22.80
2022-09-03T10:51:50.660Z,22.70
2022-09-03T10:54:40.292Z,22.90
2022-09-03T10:57:22.472Z,22.90
2022-09-03T11:00:09.851Z,23.00
2022-09-03T11:03:27.147Z,23.30
2022-09-03T11:06:06.283Z,23.50
2022-09-03T11:08:46.298Z,23.50
2022-09-03T11:11:26.519Z,23.70
2022-09-03T11:14:05.996Z,23.90
2022-09-03T11:16:44.717Z,24.10
2022-09-03T11:19:19.259Z,24.10
2022-09-03T11:21:54.316Z,24.40
2022-09-03T11:24:28.129Z,24.40
2022-09-03T11:27:09.251Z,24.40
2022-09-03T11:29:53.904Z,24.40
2022-09-03T11:32:33.750Z,24.50
2022-09-03T11:35:14.190Z,24.50
2022-09-03T11:37:59.018Z,24.70
2022-09-03T11:40:36.562Z,24.70
2022-09-03T11:43:27.395Z,24.80
2022-09-03T11:46:11.871Z,24.80
2022-09-03T11:48:47.522Z,25.10
2022-09-03T11:51:35.670Z,25.10
2022-09-03T11:54:09.650Z,25.20
2022-09-03T11:56:40.311Z,25.40
2022-09-03T11:59:24.593Z,25.00
2022-09-03T12:01:59.532Z,24.80
2022-09-03T12:04:46.715Z,25.00
2022-09-03T12:07:48.319Z,25.20
2022-09-03T12:10:49.004Z,25.50
2022-09-03T12:13:34.398Z,25.50
2022-09-03T12:16:57.404Z,25.40
2022-09-03T12:19:40.881Z,25.10
2022-09-03T12:22:16.238Z,25.40
2022-09-03T12:24:46.564Z,25.50
2022-09-03T12:27:24.649Z,25.70
2022-09-03T12:29:59.403Z,25.80
2022-09-03T12:32:32.277Z,25.90
2022-09-03T12:35:58.088Z,26.10
2022-09-03T12:38:08.121Z,26.30
2022-09-03T12:43:43.277Z,26.40
2022-09-03T12:46:17.744Z,26.20
2022-09-03T12:51:51.203Z,26.00
2022-09-03T12:54:24.637Z,26.00
2022-09-03T12:57:00.902Z,25.80
2022-09-03T12:59:34.175Z,25.50
2022-09-03T13:02:13.106Z,25.40
2022-09-03T13:04:44.693Z,25.40
2022-09-03T13:07:25.592Z,25.70
2022-09-03T13:10:03.780Z,25.90
2022-09-03T13:12:43.903Z,26.10
2022-09-03T13:15:23.615Z,26.30
2022-09-03T13:18:25.766Z,26.40
2022-09-03T13:21:18.736Z,26.20
2022-09-03T13:24:07.255Z,25.90
2022-09-03T13:26:55.578Z,25.90
2022-09-03T13:29:44.570Z,25.70
2022-09-03T13:32:43.098Z,25.80
2022-09-03T13:35:34.180Z,25.60
2022-09-03T13:38:20.373Z,25.00
2022-09-03T13:40:59.716Z,24.50
2022-09-03T13:43:38.556Z,24.50
2022-09-03T13:46:13.266Z,24.60
2022-09-03T13:49:02.677Z,24.50
2022-09-03T13:51:43.434Z,24.70
2022-09-03T13:54:42.849Z,24.60
2022-09-03T13:57:34.394Z,24.70
2022-09-03T14:00:08.921Z,25.00
2022-09-03T14:02:56.990Z,25.10
2022-09-03T14:05:45.865Z,25.20
2022-09-03T14:08:28.912Z,25.00
2022-09-03T14:11:10.116Z,24.90
2022-09-03T14:14:07.398Z,24.70
2022-09-03T14:16:48.064Z,24.60
2022-09-03T14:19:33.817Z,24.80
2022-09-03T14:22:12.490Z,24.80
2022-09-03T14:24:52.973Z,24.90
2022-09-03T14:27:28.306Z,24.90
2022-09-03T14:30:06.429Z,25.00
2022-09-03T14:32:51.674Z,24.80
2022-09-03T14:35:54.990Z,24.60
2022-09-03T14:38:53.170Z,24.20
2022-09-03T14:42:11.767Z,24.30
2022-09-03T14:45:35.769Z,24.30
2022-09-03T14:48:33.675Z,24.40
2022-09-03T14:51:25.195Z,24.40
2022-09-03T14:54:28.662Z,24.40
2022-09-03T14:57:21.881Z,24.30
2022-09-03T15:00:15.539Z,24.20
2022-09-03T15:03:39.960Z,24.10
2022-09-03T15:06:33.634Z,24.00
2022-09-03T15:09:32.635Z,24.00
2022-09-03T15:12:09.848Z,24.00
2022-09-03T15:14:51.328Z,24.10
2022-09-03T15:17:41.683Z,24.10
2022-09-03T15:20:29.358Z,24.20
2022-09-03T15:23:25.069Z,24.20
2022-09-03T15:26:24.844Z,24.10
2022-09-03T15:29:30.915Z,24.10
2022-09-03T15:32:14.381Z,24.10
2022-09-03T15:35:06.955Z,24.10
2022-09-03T15:37:46.448Z,24.10
2022-09-03T15:40:29.898Z,24.00
2022-09-03T15:43:09.664Z,24.00
2022-09-03T15:45:57.359Z,24.00
2022-09-03T15:48:39.260Z,24.00
2022-09-03T15:51:19.625Z,23.90
2022-09-03T15:53:58.795Z,23.90
2022-09-03T15:56:40.540Z,23.90
2022-09-03T15:59:19.703Z,23.80
2022-09-03T16:02:00.646Z,23.70
2022-09-03T16:05:05.733Z,23.70
2022-09-03T16:08:06.020Z,23.60
2022-09-03T16:10:50.983Z,23.50
2022-09-03T16:13:54.096Z,23.50
2022-09-03T16:16:32.085Z,23.50
2022-09-03T16:19:18.053Z,23.40
2022-09-03T16:22:01.211Z,23.30
2022-09-03T16:24:44.349Z,23.30
2022-09-03T16:27:24.006Z,23.30
2022-09-03T16:30:02.525Z,23.20
2022-09-03T16:32:58.645Z,23.20
2022-09-03T16:35:47.477Z,23.20
2022-09-03T16:38:35.011Z,23.20
2022-09-03T16:41:23.345Z,23.10
2022-09-03T16:44:10.032Z,23.10
2022-09-03T16:46:56.204Z,23.00
2022-09-03T16:49:45.242Z,23.00
2022-09-03T16:52:38.199Z,22.90
2022-09-03T16:55:24.156Z,22.80
2022-09-03T16:58:16.103Z,22.80
2022-09-03T17:01:06.873Z,22.80
2022-09-03T17:04:32.091Z,22.80
2022-09-03T17:07:33.313Z,22.70
2022-09-03T17:10:15.976Z,22.70
2022-09-03T17:12:56.235Z,22.60
2022-09-03T17:15:41.693Z,22.60
2022-09-03T17:18:42.954Z,22.60
2022-09-03T17:21:35.240Z,22.50
2022-09-03T17:24:24.338Z,22.50
2022-09-03T17:27:14.305Z,22.40
2022-09-03T17:30:07.193Z,22.30
2022-09-03T17:33:34.797Z,22.20
2022-09-03T17:36:15.968Z,22.10
2022-09-03T17:39:28.408Z,22.00
2022-09-03T17:42:05.144Z,22.10
2022-09-03T17:44:59.484Z,22.10
2022-09-03T17:48:11.279Z,22.00
2022-09-03T17:50:52.160Z,22.00
2022-09-03T17:53:31.832Z,22.00
2022-09-03T17:56:06.233Z,22.00
2022-09-03T17:58:44.802Z,21.90
2022-09-03T18:01:22.300Z,21.90
2022-09-03T18:04:02.183Z,21.90
2022-09-03T18:06:45.462Z,21.90
2022-09-03T18:09:37.756Z,21.80
2022-09-03T18:12:16.617Z,21.80
2022-09-03T18:14:56.908Z,21.70
2022-09-03T18:17:36.549Z,21.60
2022-09-03T18:20:29.943Z,21.50
2022-09-03T18:23:26.013Z,21.40
2022-09-03T18:26:20.363Z,21.20
2022-09-03T18:29:17.513Z,20.70
2022-09-03T18:32:05.129Z,20.40
2022-09-03T18:34:55.120Z,20.40
2022-09-03T18:37:46.407Z,20.40
2022-09-03T18:40:42.546Z,20.10
2022-09-03T18:43:42.456Z,19.90
2022-09-03T18:48:02.300Z,20.00
2022-09-03T18:50:02.342Z,20.00
2022-09-03T18:53:03.822Z,19.90
2022-09-03T18:56:09.290Z,19.70
2022-09-03T18:59:17.849Z,19.60
2022-09-03T19:02:06.272Z,19.60
2022-09-03T19:05:15.197Z,19.60
2022-09-03T19:08:15.496Z,19.70
2022-09-03T19:11:13.333Z,19.60
2022-09-03T19:14:04.541Z,19.70
2022-09-03T19:17:11.411Z,19.70
2022-09-03T19:20:25.351Z,19.60
2022-09-03T19:23:13.162Z,19.60
2022-09-03T19:26:01.775Z,19.50
2022-09-03T19:28:55.237Z,19.60
2022-09-03T19:32:02.136Z,19.50
2022-09-03T19:35:24.637Z,19.50
2022-09-03T19:38:32.183Z,19.40
2022-09-03T19:41:35.755Z,19.40
2022-09-03T19:44:49.489Z,19.40
2022-09-03T19:47:51.917Z,19.60
2022-09-03T19:50:45.768Z,19.50
2022-09-03T19:53:40.243Z,19.40
2022-09-03T19:56:37.616Z,19.40
2022-09-03T19:59:36.750Z,19.40
2022-09-03T20:02:24.606Z,19.50
2022-09-03T20:05:20.486Z,19.30
2022-09-03T20:08:14.231Z,19.30
2022-09-03T20:10:48.424Z,19.30
2022-09-03T20:13:21.560Z,19.30
2022-09-03T20:16:04.735Z,19.20
2022-09-03T20:18:50.974Z,19.10
2022-09-03T20:21:32.759Z,19.10
2022-09-03T20:24:17.540Z,19.10
2022-09-03T20:27:02.474Z,19.20
2022-09-03T20:29:57.489Z,19.20
2022-09-03T20:32:57.851Z,19.20
2022-09-03T20:35:44.158Z,19.20
2022-09-03T20:38:58.234Z,19.20
2022-09-03T20:41:38.706Z,19.30
2022-09-03T20:44:29.548Z,19.20
2022-09-03T20:47:21.216Z,19.20
2022-09-03T20:50:05.452Z,19.20
2022-09-03T20:52:51.755Z,19.20
2022-09-03T20:55:27.178Z,19.10
2022-09-03T20:58:07.543Z,19.10
2022-09-03T21:00:49.230Z,19.10
2022-09-03T21:03:25.498Z,19.00
2022-09-03T21:06:15.172Z,19.00
2022-09-03T21:09:04.270Z,19.00
2022-09-03T21:11:47.857Z,19.10
2022-09-03T21:14:35.144Z,19.00
2022-09-03T21:17:25.472Z,19.00
2022-09-03T21:20:15.948Z,18.90
2022-09-03T21:23:05.260Z,18.80
2022-09-03T21:25:42.294Z,18.80
2022-09-03T21:28:22.860Z,18.90
2022-09-03T21:31:00.061Z,18.90
2022-09-03T21:33:36.252Z,19.00
2022-09-03T21:36:15.843Z,19.10
2022-09-03T21:38:57.362Z,19.10
2022-09-03T21:41:37.728Z,18.90
2022-09-03T21:44:19.026Z,18.90
2022-09-03T21:46:59.152Z,18.80
2022-09-03T21:49:39.451Z,18.60
2022-09-03T21:52:16.994Z,18.60
2022-09-03T21:54:47.577Z,18.50
2022-09-03T21:57:26.138Z,18.40
2022-09-03T22:00:19.625Z,18.40
2022-09-03T22:02:52.498Z,18.40
2022-09-03T22:05:23.118Z,18.40
2022-09-03T22:08:24.359Z,18.40
2022-09-03T22:11:10.719Z,18.50
2022-09-03T22:13:54.561Z,18.40
2022-09-03T22:16:34.000Z,18.50
2022-09-03T22:19:05.303Z,18.50
2022-09-03T22:21:45.539Z,18.50
2022-09-03T22:24:26.056Z,18.60
2022-09-03T22:27:04.410Z,18.60
2022-09-03T22:29:47.225Z,18.70
2022-09-03T22:32:49.634Z,18.60
2022-09-03T22:35:49.161Z,18.50
2022-09-03T22:39:11.694Z,18.50
2022-09-03T22:42:18.867Z,18.50
2022-09-03T22:45:24.004Z,18.50
2022-09-03T22:48:13.771Z,18.40
2022-09-03T22:50:57.566Z,18.30
2022-09-03T22:53:50.013Z,18.30
2022-09-03T22:56:22.889Z,18.30
2022-09-03T22:59:03.494Z,18.30
2022-09-03T23:01:43.878Z,18.20
2022-09-03T23:04:28.783Z,18.10
2022-09-03T23:07:08.537Z,18.00
2022-09-03T23:09:44.322Z,17.90
2022-09-03T23:12:22.644Z,17.80
2022-09-03T23:14:58.474Z,17.80
2022-09-03T23:22:54.438Z,17.70
2022-09-03T23:25:31.265Z,17.70
2022-09-03T23:28:09.673Z,17.70
2022-09-03T23:30:41.235Z,17.70
2022-09-03T23:33:11.807Z,17.60
2022-09-03T23:35:56.061Z,17.60
2022-09-03T23:38:38.231Z,17.50
2022-09-03T23:41:15.895Z,17.40
2022-09-03T23:44:03.871Z,17.40
2022-09-03T23:46:43.681Z,17.40
2022-09-03T23:49:37.163Z,17.50
2022-09-03T23:52:32.233Z,17.40
2022-09-03T23:55:19.996Z,17.40
2022-09-03T23:58:00.322Z,17.40
